QFA55 PAJN-PAFA
Flight info
| Callsign | QFA55 |
|---|---|
| Flight time | 1h 8m |
| Altitude | 32000 |
| Route | JNU7 SSR Q902 RDFLG HRDNG4 |
| Aircraft | B738/M-SDE2E3FGHIRWXY/LB1 |
Departure
| Time | 2026-05-01 11:58 |
|---|---|
| Airport | Juneau International Airport (PAJN) |
Arrival
| Time | 2026-05-01 13:07 |
|---|---|
| Airport | Fairbanks International Airport (PAFA) |
| Time | Latitude | Longitude | Altitude | Speed | Heading |
|---|---|---|---|---|---|
| 2026-05-01 11:51 | 58.35879 | -134.58473 | 30 ft | 0 kts | 103° |
| 2026-05-01 11:52 | 58.35880 | -134.58483 | 30 ft | 4 kts | 93° |
| 2026-05-01 11:52 | 58.35883 | -134.58528 | 30 ft | 3 kts | 89° |
| 2026-05-01 11:53 | 58.35880 | -134.58572 | 30 ft | 3 kts | 69° |
| 2026-05-01 11:53 | 58.35878 | -134.58613 | 30 ft | 3 kts | 118° |
| 2026-05-01 11:53 | 58.35895 | -134.58644 | 30 ft | 3 kts | 142° |
| 2026-05-01 11:53 | 58.35898 | -134.58648 | 30 ft | 0 kts | 142° |
| 2026-05-01 11:55 | 58.35897 | -134.58646 | 30 ft | 1 kts | 142° |
| 2026-05-01 11:55 | 58.35883 | -134.58631 | 30 ft | 2 kts | 158° |
| 2026-05-01 11:55 | 58.35828 | -134.58615 | 30 ft | 14 kts | 180° |
| 2026-05-01 11:56 | 58.35770 | -134.58731 | 30 ft | 16 kts | 278° |
| 2026-05-01 11:56 | 58.35796 | -134.58939 | 30 ft | 17 kts | 284° |
| 2026-05-01 11:56 | 58.35826 | -134.59160 | 30 ft | 18 kts | 284° |
| 2026-05-01 11:56 | 58.35859 | -134.59396 | 30 ft | 19 kts | 284° |
| 2026-05-01 11:57 | 58.35883 | -134.59609 | 30 ft | 13 kts | 266° |
| 2026-05-01 11:57 | 58.35830 | -134.59713 | 30 ft | 11 kts | 192° |
| 2026-05-01 11:57 | 58.35772 | -134.59598 | 30 ft | 23 kts | 104° |
| 2026-05-01 11:57 | 58.35686 | -134.58971 | 30 ft | 77 kts | 105° |
| 2026-05-01 11:58 | 58.35499 | -134.57642 | 30 ft | 129 kts | 105° |
| 2026-05-01 11:58 | 58.35232 | -134.55735 | 111 ft | 161 kts | 105° |
| 2026-05-01 11:58 | 58.34475 | -134.51843 | 1175 ft | 159 kts | 130° |
| 2026-05-01 11:59 | 58.33652 | -134.50451 | 1698 ft | 159 kts | 147° |
| 2026-05-01 11:59 | 58.32656 | -134.49479 | 2111 ft | 165 kts | 156° |
| 2026-05-01 11:59 | 58.31537 | -134.48633 | 2363 ft | 180 kts | 159° |
| 2026-05-01 12:00 | 58.29075 | -134.47199 | 3272 ft | 189 kts | 177° |
| 2026-05-01 12:00 | 58.27756 | -134.47630 | 3714 ft | 202 kts | 205° |
| 2026-05-01 12:00 | 58.26194 | -134.51963 | 4963 ft | 209 kts | 263° |
| 2026-05-01 12:01 | 58.26166 | -134.54743 | 5464 ft | 219 kts | 269° |
| 2026-05-01 12:01 | 58.26149 | -134.57761 | 5702 ft | 237 kts | 262° |
| 2026-05-01 12:01 | 58.25874 | -134.60892 | 6211 ft | 241 kts | 256° |
| 2026-05-01 12:01 | 58.25447 | -134.64076 | 6589 ft | 257 kts | 252° |
| 2026-05-01 12:02 | 58.24941 | -134.67386 | 7113 ft | 264 kts | 252° |
| 2026-05-01 12:02 | 58.24473 | -134.70789 | 7732 ft | 268 kts | 254° |
| 2026-05-01 12:02 | 58.24053 | -134.74256 | 8367 ft | 271 kts | 256° |
| 2026-05-01 12:02 | 58.23649 | -134.77766 | 8997 ft | 274 kts | 256° |
| 2026-05-01 12:03 | 58.23236 | -134.81309 | 9617 ft | 276 kts | 256° |
| 2026-05-01 12:03 | 58.22807 | -134.84889 | 10182 ft | 283 kts | 256° |
| 2026-05-01 12:03 | 58.22350 | -134.88635 | 10412 ft | 299 kts | 256° |
| 2026-05-01 12:03 | 58.21866 | -134.92583 | 10639 ft | 315 kts | 256° |
| 2026-05-01 12:04 | 58.21358 | -134.96741 | 10864 ft | 332 kts | 256° |
| 2026-05-01 12:04 | 58.20828 | -135.01086 | 11229 ft | 343 kts | 256° |
| 2026-05-01 12:04 | 58.20284 | -135.05520 | 11813 ft | 347 kts | 256° |
| 2026-05-01 12:04 | 58.19725 | -135.10058 | 12456 ft | 351 kts | 256° |
| 2026-05-01 12:05 | 58.19180 | -135.14519 | 13100 ft | 353 kts | 258° |
| 2026-05-01 12:05 | 58.19553 | -135.23826 | 14455 ft | 361 kts | 291° |
| 2026-05-01 12:05 | 58.20825 | -135.27944 | 15123 ft | 366 kts | 309° |
| 2026-05-01 12:06 | 58.22747 | -135.31150 | 15793 ft | 372 kts | 327° |
| 2026-05-01 12:06 | 58.24994 | -135.33645 | 16425 ft | 377 kts | 329° |
| 2026-05-01 12:06 | 58.27307 | -135.36062 | 17059 ft | 381 kts | 330° |
| 2026-05-01 12:06 | 58.29489 | -135.38301 | 17647 ft | 385 kts | 329° |
| 2026-05-01 12:07 | 58.31852 | -135.40764 | 18272 ft | 389 kts | 329° |
| 2026-05-01 12:07 | 58.34218 | -135.43288 | 18884 ft | 392 kts | 329° |
| 2026-05-01 12:07 | 58.36600 | -135.45857 | 19485 ft | 395 kts | 328° |
| 2026-05-01 12:07 | 58.39004 | -135.48446 | 20075 ft | 398 kts | 329° |
| 2026-05-01 12:08 | 58.41431 | -135.51043 | 20646 ft | 402 kts | 329° |
| 2026-05-01 12:08 | 58.43879 | -135.53656 | 21197 ft | 405 kts | 329° |
| 2026-05-01 12:08 | 58.46347 | -135.56296 | 21727 ft | 408 kts | 328° |
| 2026-05-01 12:08 | 58.48828 | -135.58964 | 22249 ft | 411 kts | 328° |
| 2026-05-01 12:09 | 58.51325 | -135.61657 | 22763 ft | 413 kts | 328° |
| 2026-05-01 12:09 | 58.53840 | -135.64373 | 23260 ft | 416 kts | 328° |
| 2026-05-01 12:09 | 58.56367 | -135.67103 | 23744 ft | 418 kts | 328° |
| 2026-05-01 12:09 | 58.58942 | -135.69888 | 24219 ft | 421 kts | 328° |
| 2026-05-01 12:10 | 58.61466 | -135.72624 | 24657 ft | 423 kts | 328° |
| 2026-05-01 12:10 | 58.65779 | -135.77311 | 25353 ft | 427 kts | 328° |
| 2026-05-01 12:10 | 58.68371 | -135.80134 | 25751 ft | 430 kts | 328° |
| 2026-05-01 12:11 | 58.73597 | -135.85841 | 26506 ft | 434 kts | 328° |
| 2026-05-01 12:11 | 58.76226 | -135.88719 | 26858 ft | 436 kts | 328° |
| 2026-05-01 12:11 | 58.78865 | -135.91613 | 27202 ft | 438 kts | 328° |
| 2026-05-01 12:12 | 58.81516 | -135.94526 | 27528 ft | 440 kts | 327° |
| 2026-05-01 12:12 | 58.84178 | -135.97456 | 27844 ft | 441 kts | 327° |
| 2026-05-01 12:12 | 58.86852 | -136.00405 | 28126 ft | 444 kts | 327° |
| 2026-05-01 12:12 | 58.89551 | -136.03388 | 28185 ft | 451 kts | 327° |
| 2026-05-01 12:13 | 58.92286 | -136.06416 | 28356 ft | 454 kts | 327° |
| 2026-05-01 12:13 | 58.95033 | -136.09460 | 28594 ft | 455 kts | 327° |
| 2026-05-01 12:13 | 58.97781 | -136.12510 | 28874 ft | 455 kts | 327° |
| 2026-05-01 12:13 | 59.00526 | -136.15563 | 29167 ft | 455 kts | 327° |
| 2026-05-01 12:14 | 59.03268 | -136.18619 | 29468 ft | 454 kts | 327° |
| 2026-05-01 12:14 | 59.06003 | -136.21675 | 29761 ft | 453 kts | 327° |
| 2026-05-01 12:14 | 59.08768 | -136.24770 | 30052 ft | 452 kts | 327° |
| 2026-05-01 12:14 | 59.11490 | -136.27822 | 30339 ft | 451 kts | 327° |
| 2026-05-01 12:15 | 59.14204 | -136.30871 | 30620 ft | 450 kts | 327° |
| 2026-05-01 12:15 | 59.16907 | -136.33911 | 30899 ft | 448 kts | 327° |
| 2026-05-01 12:15 | 59.19609 | -136.36957 | 31167 ft | 447 kts | 327° |
| 2026-05-01 12:15 | 59.22296 | -136.39994 | 31422 ft | 446 kts | 327° |
| 2026-05-01 12:16 | 59.24979 | -136.43032 | 31672 ft | 445 kts | 327° |
| 2026-05-01 12:16 | 59.27652 | -136.46064 | 31921 ft | 444 kts | 327° |
| 2026-05-01 12:16 | 59.30323 | -136.49099 | 32162 ft | 443 kts | 327° |
| 2026-05-01 12:16 | 59.32989 | -136.52147 | 32245 ft | 445 kts | 327° |
| 2026-05-01 12:17 | 59.38332 | -136.58299 | 32256 ft | 446 kts | 327° |
| 2026-05-01 12:17 | 59.43671 | -136.64450 | 32256 ft | 444 kts | 327° |
| 2026-05-01 12:18 | 59.48974 | -136.70579 | 32254 ft | 441 kts | 327° |
| 2026-05-01 12:18 | 59.54252 | -136.76712 | 32235 ft | 440 kts | 326° |
| 2026-05-01 12:19 | 59.62994 | -136.86910 | 32212 ft | 439 kts | 326° |
| 2026-05-01 12:19 | 59.73513 | -136.99267 | 32200 ft | 439 kts | 326° |
| 2026-05-01 12:20 | 59.84016 | -137.11694 | 32190 ft | 440 kts | 326° |
| 2026-05-01 12:20 | 59.94528 | -137.24228 | 32180 ft | 441 kts | 326° |
| 2026-05-01 12:21 | 60.05117 | -137.36946 | 32170 ft | 441 kts | 326° |
| 2026-05-01 12:21 | 60.15636 | -137.49678 | 32162 ft | 442 kts | 325° |
| 2026-05-01 12:22 | 60.26177 | -137.62532 | 32152 ft | 443 kts | 325° |
| 2026-05-01 12:22 | 60.36705 | -137.75468 | 32141 ft | 443 kts | 325° |
| 2026-05-01 12:23 | 60.47227 | -137.88497 | 32128 ft | 443 kts | 325° |
| 2026-05-01 12:23 | 60.57726 | -138.01598 | 32113 ft | 443 kts | 325° |
| 2026-05-01 12:24 | 60.68220 | -138.14795 | 32097 ft | 443 kts | 324° |
| 2026-05-01 12:24 | 60.78698 | -138.28074 | 32076 ft | 443 kts | 324° |
| 2026-05-01 12:25 | 60.94387 | -138.48150 | 32046 ft | 443 kts | 324° |
| 2026-05-01 12:26 | 61.04817 | -138.61630 | 32026 ft | 443 kts | 324° |
| 2026-05-01 12:26 | 61.20434 | -138.82011 | 32011 ft | 442 kts | 323° |
| 2026-05-01 12:27 | 61.36016 | -139.02597 | 32005 ft | 442 kts | 323° |
| 2026-05-01 12:28 | 61.50288 | -139.26508 | 32006 ft | 439 kts | 316° |
| 2026-05-01 12:29 | 61.64476 | -139.51029 | 32008 ft | 438 kts | 316° |
| 2026-05-01 12:29 | 61.78567 | -139.75670 | 32004 ft | 439 kts | 316° |
| 2026-05-01 12:30 | 61.92610 | -140.00524 | 32003 ft | 438 kts | 315° |
| 2026-05-01 12:31 | 62.01934 | -140.17200 | 32001 ft | 438 kts | 315° |
| 2026-05-01 12:31 | 62.11245 | -140.33987 | 32006 ft | 438 kts | 315° |
| 2026-05-01 12:32 | 62.20535 | -140.50873 | 31993 ft | 438 kts | 315° |
| 2026-05-01 12:32 | 62.34421 | -140.76385 | 31977 ft | 437 kts | 315° |
| 2026-05-01 12:33 | 62.43643 | -140.93509 | 31972 ft | 437 kts | 315° |
| 2026-05-01 12:33 | 62.52840 | -141.10741 | 31966 ft | 438 kts | 315° |
| 2026-05-01 12:34 | 62.62024 | -141.28135 | 31958 ft | 438 kts | 315° |
| 2026-05-01 12:34 | 62.71180 | -141.45614 | 31954 ft | 438 kts | 315° |
| 2026-05-01 12:35 | 62.80314 | -141.63199 | 31952 ft | 437 kts | 315° |
| 2026-05-01 12:35 | 62.89473 | -141.80991 | 31950 ft | 437 kts | 314° |
| 2026-05-01 12:36 | 62.97787 | -142.00118 | 31958 ft | 430 kts | 303° |
| 2026-05-01 12:36 | 63.05034 | -142.21101 | 31950 ft | 429 kts | 304° |
| 2026-05-01 12:37 | 63.12169 | -142.42186 | 31949 ft | 428 kts | 303° |
| 2026-05-01 12:37 | 63.19286 | -142.63256 | 31947 ft | 427 kts | 303° |
| 2026-05-01 12:38 | 63.26373 | -142.84431 | 31944 ft | 427 kts | 303° |
| 2026-05-01 12:38 | 63.33418 | -143.05726 | 31940 ft | 428 kts | 303° |
| 2026-05-01 12:39 | 63.40434 | -143.27115 | 31935 ft | 427 kts | 302° |
| 2026-05-01 12:39 | 63.47423 | -143.48615 | 31928 ft | 427 kts | 302° |
| 2026-05-01 12:40 | 63.54363 | -143.70179 | 31920 ft | 426 kts | 302° |
| 2026-05-01 12:40 | 63.61261 | -143.91824 | 31910 ft | 426 kts | 302° |
| 2026-05-01 12:41 | 63.68123 | -144.13560 | 31899 ft | 426 kts | 301° |
| 2026-05-01 12:41 | 63.74729 | -144.34671 | 31888 ft | 427 kts | 301° |
| 2026-05-01 12:42 | 63.78163 | -144.45731 | 31881 ft | 427 kts | 301° |
| 2026-05-01 12:42 | 63.80996 | -144.54895 | 31876 ft | 428 kts | 301° |
| 2026-05-01 12:43 | 63.84405 | -144.65969 | 31870 ft | 429 kts | 301° |
| 2026-05-01 12:43 | 63.87818 | -144.77114 | 31864 ft | 431 kts | 301° |
| 2026-05-01 12:44 | 63.91231 | -144.88313 | 31859 ft | 432 kts | 301° |
| 2026-05-01 12:45 | 63.98052 | -145.10864 | 31505 ft | 436 kts | 300° |
| 2026-05-01 12:45 | 63.99766 | -145.16566 | 30659 ft | 437 kts | 300° |
| 2026-05-01 12:45 | 64.01481 | -145.22286 | 29810 ft | 437 kts | 300° |
| 2026-05-01 12:46 | 64.03198 | -145.28025 | 28958 ft | 438 kts | 300° |
| 2026-05-01 12:46 | 64.04911 | -145.33767 | 28107 ft | 439 kts | 300° |
| 2026-05-01 12:46 | 64.06628 | -145.39538 | 27254 ft | 439 kts | 300° |
| 2026-05-01 12:46 | 64.08344 | -145.45319 | 26401 ft | 439 kts | 300° |
| 2026-05-01 12:47 | 64.10057 | -145.51106 | 25549 ft | 440 kts | 300° |
| 2026-05-01 12:47 | 64.11771 | -145.56910 | 24696 ft | 440 kts | 299° |
| 2026-05-01 12:47 | 64.13502 | -145.62789 | 23834 ft | 440 kts | 299° |
| 2026-05-01 12:47 | 64.15207 | -145.68594 | 22981 ft | 439 kts | 299° |
| 2026-05-01 12:48 | 64.16909 | -145.74402 | 22132 ft | 438 kts | 299° |
| 2026-05-01 12:48 | 64.18601 | -145.80191 | 21285 ft | 437 kts | 299° |
| 2026-05-01 12:48 | 64.20288 | -145.85977 | 20440 ft | 435 kts | 299° |
| 2026-05-01 12:48 | 64.21943 | -145.91658 | 19722 ft | 418 kts | 300° |
| 2026-05-01 12:49 | 64.23522 | -145.97080 | 19135 ft | 398 kts | 299° |
| 2026-05-01 12:49 | 64.25023 | -146.02257 | 18621 ft | 380 kts | 299° |
| 2026-05-01 12:49 | 64.26447 | -146.07196 | 18142 ft | 364 kts | 299° |
| 2026-05-01 12:49 | 64.27823 | -146.12007 | 17780 ft | 357 kts | 298° |
| 2026-05-01 12:50 | 64.29180 | -146.16751 | 17319 ft | 353 kts | 299° |
| 2026-05-01 12:50 | 64.30524 | -146.21447 | 16815 ft | 350 kts | 298° |
| 2026-05-01 12:50 | 64.31833 | -146.26143 | 16294 ft | 347 kts | 298° |
| 2026-05-01 12:50 | 64.33107 | -146.30845 | 15776 ft | 344 kts | 297° |
| 2026-05-01 12:51 | 64.34366 | -146.35523 | 15249 ft | 342 kts | 297° |
| 2026-05-01 12:51 | 64.35622 | -146.40162 | 14716 ft | 340 kts | 298° |
| 2026-05-01 12:51 | 64.38131 | -146.49367 | 13937 ft | 337 kts | 298° |
| 2026-05-01 12:52 | 64.39375 | -146.53948 | 13556 ft | 336 kts | 298° |
| 2026-05-01 12:52 | 64.41833 | -146.63059 | 12817 ft | 332 kts | 298° |
| 2026-05-01 12:52 | 64.43053 | -146.67593 | 12442 ft | 331 kts | 298° |
| 2026-05-01 12:53 | 64.45471 | -146.76600 | 11709 ft | 328 kts | 298° |
| 2026-05-01 12:53 | 64.46670 | -146.81081 | 11343 ft | 327 kts | 298° |
| 2026-05-01 12:53 | 64.47866 | -146.85561 | 10977 ft | 327 kts | 298° |
| 2026-05-01 12:54 | 64.49060 | -146.90042 | 10618 ft | 326 kts | 298° |
| 2026-05-01 12:54 | 64.51396 | -146.98818 | 10362 ft | 304 kts | 298° |
| 2026-05-01 12:54 | 64.52478 | -147.02891 | 10243 ft | 289 kts | 298° |
| 2026-05-01 12:55 | 64.54519 | -147.10626 | 9600 ft | 277 kts | 298° |
| 2026-05-01 12:55 | 64.55518 | -147.14431 | 9172 ft | 276 kts | 299° |
| 2026-05-01 12:55 | 64.56517 | -147.18234 | 8736 ft | 275 kts | 299° |
| 2026-05-01 12:56 | 64.57513 | -147.22021 | 8321 ft | 273 kts | 300° |
| 2026-05-01 12:56 | 64.58501 | -147.25788 | 7910 ft | 272 kts | 298° |
| 2026-05-01 12:56 | 64.59481 | -147.29540 | 7504 ft | 270 kts | 299° |
| 2026-05-01 12:56 | 64.60453 | -147.33267 | 7104 ft | 269 kts | 299° |
| 2026-05-01 12:57 | 64.61421 | -147.36977 | 6705 ft | 267 kts | 299° |
| 2026-05-01 12:57 | 64.63197 | -147.44474 | 5882 ft | 262 kts | 285° |
| 2026-05-01 12:57 | 64.63617 | -147.48476 | 5769 ft | 248 kts | 280° |
| 2026-05-01 12:58 | 64.63994 | -147.52357 | 5728 ft | 243 kts | 280° |
| 2026-05-01 12:58 | 64.64358 | -147.56144 | 5708 ft | 233 kts | 279° |
| 2026-05-01 12:58 | 64.64699 | -147.59715 | 5600 ft | 218 kts | 279° |
| 2026-05-01 12:59 | 64.65250 | -147.66338 | 5552 ft | 213 kts | 273° |
| 2026-05-01 12:59 | 64.65405 | -147.69920 | 5403 ft | 223 kts | 273° |
| 2026-05-01 12:59 | 64.65719 | -147.76938 | 4991 ft | 215 kts | 273° |
| 2026-05-01 13:00 | 64.66022 | -147.83822 | 4552 ft | 212 kts | 273° |
| 2026-05-01 13:00 | 64.66169 | -147.87240 | 4324 ft | 211 kts | 273° |
| 2026-05-01 13:01 | 64.66454 | -147.93892 | 3882 ft | 199 kts | 274° |
| 2026-05-01 13:01 | 64.66668 | -147.97022 | 3637 ft | 195 kts | 285° |
| 2026-05-01 13:01 | 64.68228 | -148.02053 | 3114 ft | 191 kts | 325° |
| 2026-05-01 13:02 | 64.69422 | -148.03394 | 2874 ft | 190 kts | 345° |
| 2026-05-01 13:07 | 64.81638 | -147.86386 | 442 ft | 18 kts | 218° |
| 2026-05-01 13:07 | 64.81539 | -147.86569 | 442 ft | 18 kts | 218° |
| 2026-05-01 13:07 | 64.81505 | -147.86766 | 442 ft | 13 kts | 303° |
| 2026-05-01 13:08 | 64.81561 | -147.86886 | 442 ft | 11 kts | 346° |
| 2026-05-01 13:08 | 64.81630 | -147.86860 | 442 ft | 6 kts | 14° |
| 2026-05-01 13:08 | 64.81646 | -147.86850 | 442 ft | 0 kts | 15° |